Lake Levels
Share |
Lake Levels
LAKES RIVERS MARINAS NEWS HOUSES EVENTS MAPS
1,646 Lakes:
Lake Store
Coastal Towns
Discover Rivers

Lake Levels

LakeLevels.info is a national information and alert service for lake water levels in the United States. With a FREE member account you can receive water level alerts by email when the water level reaches your desired alert level.


We currently offer Lake Level information and alerts for 91 lakes and serve 9,494 members with 23,310 alerts.


Sign-up for a Lake Level Alert




Filter By State:
Lake Name Current
Level
Full Pool +/-
Full Pool
Reading
Date - Time
Alan Henry (TX) 2,210.36 2,224.00 -13.64 1/26/2015  12:30:00 AM
Amistad (TX) 1,087.78 1,117.00 -29.22 1/26/2015  12:15:00 AM
Amon Carter (TX) 912.01 920.00 -7.99 1/26/2015  12:00:00 AM
Aquilla (TX) 535.42 537.50 -2.08 1/26/2015  12:30:00 AM
Arlington (TX) 544.69 550.00 -5.31 1/25/2015  12:00:00 AM
Arrowhead (TX) 906.65 926.00 -19.35 1/25/2015  12:00:00 AM
Athens (TX) 439.23 440.00 -0.77 1/26/2015  1:30:00 AM
Austin (TX) 492.83 492.80 0.03 1/25/2015  10:15:00 AM
Bardwell (TX) 418.80 421.00 -2.20 1/26/2015  1:30:00 AM
Belton (TX) 581.43 594.00 -12.57 1/26/2015  12:00:00 AM
Benbrook (TX) 684.64 694.00 -9.36 1/26/2015  12:00:00 AM
Bob Sandlin (TX) 335.84 337.50 -1.66 1/25/2015  9:30:00 AM
Bonham (TX) 562.19 565.00 -2.81 1/26/2015  1:00:00 AM
Brady Creek (TX) 1,726.77 1,743.00 -16.23 1/26/2015  12:45:00 AM
Bridgeport (TX) 811.83 836.00 -24.17 1/26/2015  1:00:00 AM
Brownwood (TX) 1,412.18 1,425.00 -12.82 1/26/2015  12:30:00 AM
Buchanan (TX) 986.84 1,020.50 -33.66 1/25/2015  10:15:00 AM
Caddo (LA TX) 169.75 168.50 1.25 1/25/2015  7:30:00 AM
Canyon (TX) 897.34 909.00 -11.66 1/26/2015  1:15:00 AM
Cedar Creek (TX) 317.07 ??? 1/26/2015  12:45:00 AM
Champion Creek (TX) 2,035.11 2,083.00 -47.89 1/25/2015  9:22:00 AM
Cherokee (TX) 280.50 280.00 0.50 1/25/2015  7:15:00 AM
Choke Canyon (TX) 192.12 220.50 -28.38 1/25/2015  7:30:00 AM
Cisco (TX) 1,502.29 1,520.00 -17.71 1/26/2015  6:30:00 AM
Coleman (TX) 1,698.28 1,718.00 -19.72 1/26/2015  12:30:00 AM
Coleto Creek (TX) 93.20 98.28 -5.08 1/26/2015  12:00:00 AM
Colorado City (TX) 2,047.20 2,070.20 -23.00 1/25/2015  9:22:00 AM
Conroe (TX) 201.07 201.00 0.07 1/26/2015  12:45:00 AM
Corpus Christi (TX) 85.64 94.00 -8.36 1/25/2015  9:59:00 AM
E. V. Spence (TX) 1,824.36 1,898.00 -73.64 1/26/2015  12:00:00 AM
Eagle Mountain (TX) 638.57 649.00 -10.43 1/26/2015  12:45:00 AM
Falcon (TX) 274.51 301.20 -26.69 1/25/2015  10:15:00 AM
Fork (TX) 396.03 403.00 -6.97 1/26/2015  12:30:00 AM
Georgetown (TX) 780.79 791.00 -10.21 1/26/2015  1:00:00 AM
Graham (TX) 1,060.38 1,075.00 -14.62 1/26/2015  1:00:00 AM
Granbury (TX) 682.69 693.00 -10.31 1/26/2015  1:30:00 AM
Granger (TX) 505.64 504.00 1.64 1/26/2015  12:00:00 AM
Grapevine (TX) 523.01 535.00 -11.99 1/26/2015  12:45:00 AM
Hords Creek (TX) 1,886.15 1,900.00 -13.85 1/26/2015  1:30:00 AM
Houston (TX) 42.72 41.70 1.02 1/26/2015  1:30:00 AM
Hubbard Creek (TX) 1,153.44 1,183.00 -29.56 1/26/2015  12:15:00 AM
Hubert M Moss (TX) 711.16 715.00 -3.84 1/26/2015  12:15:00 AM
Inks (TX) 887.12 886.90 0.22 1/26/2015  1:00:00 AM
Jacksonville (TX) 421.88 422.00 -0.12 1/25/2015  9:30:00 AM
JB Thomas (TX) 2,239.16 2,258.00 -18.84 1/26/2015  12:45:00 AM
Jim Chapman (TX) 429.04 440.00 -10.96 1/25/2015  9:30:00 AM
Joe Pool (TX) 520.67 522.00 -1.33 1/26/2015  12:00:00 AM
Lake O' the Pines (TX) 229.04 228.50 0.54 1/25/2015  9:30:00 AM
Lavon (TX) 479.90 492.00 -12.10 1/26/2015  12:00:00 AM
Leon (TX) 1,367.36 ??? 1/26/2015  12:45:00 AM
Lewisville (TX) 514.93 522.00 -7.07 1/26/2015  12:30:00 AM
Limestone (TX) 362.94 363.00 -0.06 1/26/2015  12:45:00 AM
Livingston (TX) 131.99 131.00 0.99 1/26/2015  1:15:00 AM
Lyndon B. Johnson (TX) 824.76 825.00 -0.24 1/25/2015  10:15:00 AM
MacKenzie (TX) 3,009.52 3,100.00 -90.48 1/26/2015  1:30:00 AM
Marble Falls (TX) 736.58 737.00 -0.42 1/25/2015  10:15:00 AM
Martin Creek (TX) 306.04 306.00 0.04 1/26/2015  1:30:00 AM
Medina (TX) 974.42 1,062.00 -87.58 1/26/2015  12:00:00 AM
Meredith (TX) 2,857.78 2,941.00 -83.22 1/26/2015  12:30:00 AM
Mexia (TX) 448.52 448.30 0.22 1/26/2015  1:15:00 AM
Mineral Wells (TX) 855.07 863.00 -7.93 1/26/2015  7:30:00 AM
Moss Creek (TX) 2,309.83 2,337.00 -27.17 1/26/2015  1:45:00 AM
Murvaul (TX) 266.23 265.50 0.73 1/25/2015  9:30:00 AM
Nacogdoches (TX) 280.10 279.00 1.10 1/25/2015  9:30:00 AM
Natural Dam Salt (TX) 2,447.33 2,457.00 -9.67 1/25/2015  9:22:00 AM
Nocona (TX) 813.60 827.00 -13.40 1/26/2015  1:00:00 AM
O.H. Ivie (TX) 1,508.08 1,551.50 -43.42 1/26/2015  12:15:00 AM
Palestine (TX) 345.42 345.00 0.42 1/25/2015  9:30:00 AM
Palo Pinto (TX) 847.20 867.00 -19.80 1/26/2015  12:15:00 AM
Pat Cleburne (TX) 727.68 733.60 -5.92 1/26/2015  12:00:00 AM
Pat Mayse (TX) 450.24 451.00 -0.76 1/25/2015  9:30:00 AM
Possum Kingdom (TX) 985.38 1,000.00 -14.62 1/25/2015  9:20:00 AM
Proctor (TX) 1,149.36 1,162.00 -12.64 1/26/2015  12:30:00 AM
Ray Hubbard (TX) 426.30 435.50 -9.20 1/26/2015  1:30:00 AM
Ray Roberts (TX) 624.51 632.50 -7.99 1/26/2015  12:15:00 AM
Red Bluff (TX) 2,825.04 2,827.13 -2.09 1/25/2015  9:22:00 AM
Richland Chambers (TX) 304.94 315.00 -10.06 1/25/2015  9:20:00 AM
Sam Rayburn (TX) 164.94 164.40 0.54 1/26/2015  1:00:00 AM
Somerville (TX) 241.59 238.00 3.59 1/26/2015  12:00:00 AM
Tawakoni (TX) 426.19 437.50 -11.31 1/26/2015  1:30:00 AM
Texana (TX) 42.08 44.00 -1.92 1/26/2015  12:00:00 AM
Texoma (TX) 611.75 617.00 -5.25 1/26/2015  1:00:00 AM
Toledo Bend (TX LA) 169.44 172.00 -2.56 1/26/2015  1:30:00 AM
Travis (TX) 624.38 681.00 -56.62 1/26/2015  1:00:00 AM
Twin Buttes (TX) 1,892.24 1,940.00 -47.76 1/25/2015  12:00:00 AM
Tyler (TX) 375.86 375.50 0.36 1/25/2015  9:30:00 AM
Waco (TX) 459.22 462.00 -2.78 1/26/2015  12:15:00 AM
White River (TX) 2,342.92 ??? 1/26/2015  1:15:00 AM
Whitney (TX) 522.59 533.00 -10.41 1/26/2015  12:15:00 AM
Worth (TX) 590.40 594.00 -3.60 1/26/2015  12:00:00 AM
Wright Patman (TX) 224.20 220.60 3.60 1/25/2015  9:30:00 AM


Current Daily Streamflow Conditions
High
90th percentile
75th - 89th percentile
25th - 74th percentile
10th - 24th percentile
10th percentile
Low
Not ranked

The colored dots on this map depict streamflow conditions as a percentile, which is computed from the period of record for the current day of the year. Only stations with at least 30 years of record are used. The gray circles indicate other stations that were not ranked in percentiles either because they have fewer than 30 years of record or because they report parameters other than streamflow. Some stations, for example, measure stage only.
TX Daily Streamflow Conditions



U.S. Drought Monitor